createdAt,value
2018-02-06T06:17:21.718Z,3
2018-02-06T06:23:52.136Z,7
2018-02-06T06:26:52.367Z,10
2018-02-06T06:28:52.450Z,13
2018-02-06T06:30:22.534Z,17
2018-02-06T06:31:22.599Z,20
2018-02-06T06:32:22.670Z,23
2018-02-06T06:33:22.781Z,27
2018-02-06T06:34:22.822Z,30
2018-02-06T06:35:22.858Z,33
2018-02-06T06:35:52.856Z,37
2018-02-06T06:36:22.950Z,40
2018-02-06T06:37:22.970Z,43
2018-02-06T06:37:53.007Z,47
2018-02-06T06:38:23.043Z,50
2018-02-06T06:38:53.085Z,53
2018-02-06T06:39:23.171Z,57
2018-02-06T06:39:53.140Z,60
2018-02-06T06:40:23.221Z,63
2018-02-06T06:40:53.182Z,70
2018-02-06T06:41:23.238Z,73
2018-02-06T06:41:53.250Z,77
2018-02-06T06:42:23.347Z,80
2018-02-06T06:42:53.302Z,87
2018-02-06T06:43:23.356Z,90
2018-02-06T06:43:53.395Z,97
2018-02-06T06:44:23.445Z,100
2018-02-06T06:44:53.459Z,107
2018-02-06T06:45:23.492Z,110
2018-02-06T06:45:53.497Z,117
2018-02-06T06:46:23.571Z,123
2018-02-06T06:46:53.556Z,130
2018-02-06T06:47:23.563Z,137
2018-02-06T06:47:53.627Z,140
2018-02-06T06:48:23.666Z,147
2018-02-06T06:48:53.695Z,157
2018-02-06T06:49:23.722Z,163
2018-02-06T06:49:53.720Z,170
2018-02-06T06:50:23.773Z,177
2018-02-06T06:50:53.799Z,183
2018-02-06T06:51:23.824Z,190
2018-02-06T06:51:53.831Z,200
2018-02-06T06:52:23.881Z,207
2018-02-06T06:52:53.911Z,213
2018-02-06T06:53:23.934Z,223
2018-02-06T06:53:53.956Z,230
2018-02-06T06:54:23.993Z,240
2018-02-06T06:54:54.054Z,250
2018-02-06T06:55:24.068Z,257
2018-02-06T06:55:54.109Z,267
2018-02-06T06:56:24.158Z,277
2018-02-06T06:56:54.141Z,287
2018-02-06T06:57:24.208Z,297
2018-02-06T06:57:54.244Z,310
2018-02-06T06:58:24.252Z,320
2018-02-06T06:58:54.275Z,330
2018-02-06T06:59:24.340Z,340
2018-02-06T06:59:54.353Z,350
2018-02-06T07:00:24.416Z,363
2018-02-06T07:00:54.420Z,373
2018-02-06T07:01:24.481Z,387
2018-02-06T07:01:54.485Z,397
2018-02-06T07:02:24.522Z,410
2018-02-06T07:02:54.532Z,423
2018-02-06T07:03:24.591Z,430
2018-02-06T07:03:54.628Z,443
2018-02-06T07:04:24.612Z,457
2018-02-06T07:04:54.685Z,470
2018-02-06T07:05:24.741Z,480
2018-02-06T07:05:54.727Z,493
2018-02-06T07:06:24.781Z,507
2018-02-06T07:06:54.754Z,520
2018-02-06T07:07:24.863Z,533
2018-02-06T07:07:54.852Z,547
2018-02-06T07:08:24.933Z,560
2018-02-06T07:08:54.934Z,573
2018-02-06T07:09:24.978Z,587
2018-02-06T07:09:54.931Z,600
2018-02-06T07:10:25.056Z,617
2018-02-06T07:10:54.986Z,630
2018-02-06T07:11:25.153Z,640
2018-02-06T07:11:55.108Z,653
2018-02-06T07:12:25.162Z,667
2018-02-06T07:12:55.113Z,683
2018-02-06T07:13:25.191Z,697
2018-02-06T07:13:55.169Z,713
2018-02-06T07:14:25.247Z,727
2018-02-06T07:14:55.249Z,743
2018-02-06T07:15:25.351Z,757
2018-02-06T07:15:55.369Z,770
2018-02-06T07:16:25.409Z,787
2018-02-06T07:16:55.455Z,800
2018-02-06T07:17:25.437Z,817
2018-02-06T07:17:55.473Z,830
2018-02-06T07:18:25.490Z,847
2018-02-06T07:18:55.509Z,857
2018-02-06T07:19:25.575Z,873
2018-02-06T07:19:55.544Z,890
2018-02-06T07:20:25.681Z,907
2018-02-06T07:20:55.620Z,923
2018-02-06T07:21:25.722Z,937
2018-02-06T07:21:55.715Z,953
2018-02-06T07:22:25.734Z,970
2018-02-06T07:22:55.737Z,983
2018-02-06T07:23:25.771Z,1000
2018-02-06T07:23:55.797Z,1020
2018-02-06T07:24:25.835Z,1033
2018-02-06T07:24:55.850Z,1050
2018-02-06T07:25:25.899Z,1063
2018-02-06T07:25:55.930Z,1077
2018-02-06T07:26:26.045Z,1090
2018-02-06T07:26:55.973Z,1107
2018-02-06T07:27:26.019Z,1120
2018-02-06T07:27:56.105Z,1133
2018-02-06T07:28:26.092Z,1150
2018-02-06T07:28:56.141Z,1167
2018-02-06T07:29:26.150Z,1183
2018-02-06T07:29:56.200Z,1200
2018-02-06T07:30:26.228Z,1213
2018-02-06T07:30:56.229Z,1230
2018-02-06T07:31:26.306Z,1247
2018-02-06T07:31:56.320Z,1263
2018-02-06T07:32:26.373Z,1280
2018-02-06T07:32:56.421Z,1300
2018-02-06T07:33:26.393Z,1323
2018-02-06T07:33:56.443Z,1343
2018-02-06T07:34:26.505Z,1360
2018-02-06T07:34:56.505Z,1380
2018-02-06T07:35:26.576Z,1403
2018-02-06T07:35:56.573Z,1460
2018-02-06T07:36:26.607Z,1820
2018-02-06T07:36:56.603Z,2463
2018-02-06T07:37:26.774Z,3160
2018-02-06T07:37:56.672Z,3627
2018-02-06T07:38:26.685Z,3793
2018-02-06T07:38:56.763Z,3873
2018-02-06T07:39:26.788Z,3963
2018-02-06T07:39:56.764Z,4030
2018-02-06T07:40:26.847Z,4033
2018-02-06T07:40:56.833Z,4067
2018-02-06T07:41:27.100Z,4150
2018-02-06T07:41:56.937Z,4247
2018-02-06T07:42:26.959Z,4423
2018-02-06T07:42:56.953Z,4483
2018-02-06T07:43:26.997Z,4573
2018-02-06T07:43:57.013Z,4630
2018-02-06T07:44:27.116Z,4693
2018-02-06T07:44:57.115Z,4757
2018-02-06T07:45:28.639Z,4820
2018-02-06T07:45:57.150Z,4903
2018-02-06T07:46:27.189Z,4967
2018-02-06T07:46:57.217Z,5017
2018-02-06T07:47:27.271Z,5107
2018-02-06T07:47:57.426Z,5150
2018-02-06T07:48:27.328Z,5233
2018-02-06T07:48:57.361Z,5293
2018-02-06T07:49:27.410Z,5350
2018-02-06T07:49:57.400Z,5377
2018-02-06T07:50:27.517Z,5400
2018-02-06T07:50:57.549Z,5490
2018-02-06T07:51:27.538Z,5560
2018-02-06T07:51:57.566Z,5687
2018-02-06T07:52:27.585Z,5760
2018-02-06T07:52:57.608Z,5847
2018-02-06T07:53:27.613Z,5893
2018-02-06T07:53:57.682Z,5973
2018-02-06T07:54:27.739Z,6087
2018-02-06T07:54:57.724Z,6133
2018-02-06T07:55:27.757Z,6233
2018-02-06T07:55:57.773Z,6290
2018-02-06T07:56:27.917Z,6260
2018-02-06T07:56:57.844Z,6387
2018-02-06T07:57:27.901Z,6403
2018-02-06T07:57:57.896Z,6417
2018-02-06T07:58:27.981Z,6560
2018-02-06T07:58:57.969Z,6633
2018-02-06T07:59:28.026Z,6800
2018-02-06T07:59:58.031Z,6937
2018-02-06T08:00:28.112Z,6990
2018-02-06T08:00:58.105Z,7073
2018-02-06T08:01:28.138Z,7147
2018-02-06T08:01:58.147Z,7200
2018-02-06T08:02:28.229Z,7290
2018-02-06T08:02:58.177Z,7283
2018-02-06T08:03:28.282Z,7357
2018-02-06T08:03:58.329Z,7480
2018-02-06T08:04:28.322Z,7603
2018-02-06T08:04:58.346Z,7687
2018-02-06T08:05:28.403Z,7813
2018-02-06T08:05:58.374Z,7890
2018-02-06T08:06:28.440Z,7900
2018-02-06T08:06:58.451Z,7883
2018-02-06T08:07:28.523Z,7933
2018-02-06T08:07:58.506Z,8050
2018-02-06T08:08:28.537Z,8113
2018-02-06T08:08:58.603Z,8230
2018-02-06T08:09:28.605Z,8327
2018-02-06T08:09:58.605Z,8323
2018-02-06T08:10:28.733Z,8410
2018-02-06T08:10:58.684Z,8457
2018-02-06T08:11:28.773Z,8613
2018-02-06T08:11:58.789Z,8707
2018-02-06T08:12:28.819Z,8760
2018-02-06T08:12:58.802Z,8853
2018-02-06T08:13:28.885Z,8790
2018-02-06T08:13:58.864Z,8670
2018-02-06T08:14:28.902Z,8790
2018-02-06T08:14:58.912Z,8913
2018-02-06T08:15:30.521Z,8967
2018-02-06T08:15:58.980Z,8983
2018-02-06T08:16:29.046Z,9003
2018-02-06T08:16:59.038Z,9223
2018-02-06T08:17:29.126Z,9387
2018-02-06T08:17:59.131Z,9520
2018-02-06T08:18:29.201Z,9480
2018-02-06T08:18:59.191Z,9600
2018-02-06T08:19:29.230Z,9773
2018-02-06T08:19:59.232Z,9883
2018-02-06T08:20:29.372Z,9940
2018-02-06T08:20:59.319Z,9903
2018-02-06T08:21:29.357Z,9967
2018-02-06T08:21:59.402Z,10113
2018-02-06T08:22:29.414Z,10227
2018-02-06T08:22:59.454Z,10280
2018-02-06T08:23:29.500Z,10420
2018-02-06T08:23:59.491Z,10363
2018-02-06T08:24:29.591Z,10393
2018-02-06T08:24:59.585Z,10520
2018-02-06T08:25:29.656Z,10653
2018-02-06T08:25:59.620Z,10683
2018-02-06T08:26:29.654Z,10743
2018-02-06T08:26:59.673Z,10790
2018-02-06T08:27:29.750Z,10987
2018-02-06T08:27:59.733Z,11063
2018-02-06T08:28:29.765Z,11100
2018-02-06T08:28:59.783Z,11170
2018-02-06T08:29:29.830Z,11330
2018-02-06T08:29:59.833Z,11303
2018-02-06T08:30:29.952Z,11467
2018-02-06T08:30:59.905Z,11583
2018-02-06T08:31:29.959Z,11593
2018-02-06T08:31:59.968Z,11737
2018-02-06T08:32:30.012Z,11793
2018-02-06T08:33:00.041Z,11837
2018-02-06T08:33:30.101Z,11783
2018-02-06T08:34:00.081Z,11830
2018-02-06T08:34:30.131Z,11927
2018-02-06T08:35:00.217Z,11920
2018-02-06T08:35:30.302Z,12027
2018-02-06T08:36:00.879Z,12300
2018-02-06T08:36:30.278Z,12330
2018-02-06T08:37:00.829Z,12327
2018-02-06T08:37:30.342Z,12200
2018-02-06T08:38:00.667Z,12150
2018-02-06T08:38:30.372Z,12143
2018-02-06T08:39:00.858Z,12493
2018-02-06T08:39:30.468Z,12480
2018-02-06T08:40:00.752Z,12660
2018-02-06T08:40:30.565Z,12807
2018-02-06T08:41:00.609Z,12713
2018-02-06T08:41:30.610Z,12753
2018-02-06T08:42:01.026Z,12973
2018-02-06T08:42:30.653Z,13053
2018-02-06T08:43:00.671Z,13103
2018-02-06T08:43:30.735Z,13160
2018-02-06T08:44:00.704Z,13077
2018-02-06T08:44:30.804Z,13287
2018-02-06T08:45:01.084Z,13350
2018-02-06T08:45:30.874Z,13263
2018-02-06T08:46:00.929Z,13457
2018-02-06T08:46:30.932Z,13587
2018-02-06T08:47:00.940Z,13660
2018-02-06T08:47:30.949Z,13723
2018-02-06T08:48:00.938Z,13817
2018-02-06T08:48:31.023Z,13867
2018-02-06T08:49:00.998Z,13913
2018-02-06T08:49:31.119Z,13930
2018-02-06T08:50:01.900Z,13823
2018-02-06T08:50:31.161Z,14007
2018-02-06T08:51:01.172Z,14027
2018-02-06T08:51:31.251Z,14163
2018-02-06T08:52:02.258Z,14187
2018-02-06T08:52:31.301Z,14313
2018-02-06T08:53:01.325Z,14220
2018-02-06T08:53:31.323Z,14337
2018-02-06T08:54:01.352Z,14407
2018-02-06T08:54:31.424Z,14647
2018-02-06T08:55:01.431Z,14693
2018-02-06T08:55:31.455Z,14733
2018-02-06T08:56:01.487Z,14780
2018-02-06T08:56:31.501Z,14703
2018-02-06T08:57:01.569Z,15050
2018-02-06T08:57:31.559Z,14867
2018-02-06T08:58:01.557Z,14977
2018-02-06T08:58:31.645Z,15077
2018-02-06T08:59:01.652Z,15030
2018-02-06T08:59:31.669Z,14933
2018-02-06T09:00:01.764Z,15030
2018-02-06T09:00:31.733Z,15150
2018-02-06T09:01:01.770Z,15273
2018-02-06T09:01:31.785Z,15217
2018-02-06T09:02:01.848Z,15480
2018-02-06T09:02:31.862Z,15527
2018-02-06T09:03:01.919Z,15667
2018-02-06T09:03:31.902Z,15743
2018-02-06T09:04:01.919Z,15823
2018-02-06T09:04:31.977Z,15880
2018-02-06T09:05:02.068Z,15840
2018-02-06T09:05:32.046Z,15970
2018-02-06T09:06:02.070Z,16010
2018-02-06T09:06:32.106Z,15823
2018-02-06T09:07:02.191Z,15880
2018-02-06T09:07:32.163Z,15937
2018-02-06T09:08:02.177Z,15867
2018-02-06T09:08:32.247Z,16057
2018-02-06T09:09:02.238Z,16233
2018-02-06T09:09:32.281Z,16213
2018-02-06T09:10:02.322Z,16287
2018-02-06T09:10:32.390Z,16320
2018-02-06T09:11:02.464Z,16397
2018-02-06T09:11:32.432Z,16430
2018-02-06T09:12:02.422Z,16497
2018-02-06T09:12:33.240Z,16577
2018-02-06T09:13:02.522Z,16390
2018-02-06T09:13:32.596Z,16127
2018-02-06T09:14:02.594Z,16460
2018-02-06T09:14:32.606Z,16337
2018-02-06T09:15:02.636Z,12940
2018-02-06T09:15:32.668Z,14487
2018-02-06T09:16:02.741Z,16377
2018-02-06T09:16:32.789Z,9137
2018-02-06T09:17:02.728Z,15833
2018-02-06T09:17:32.815Z,16377
2018-02-06T09:18:02.788Z,15297
2018-02-06T09:18:32.836Z,16547
2018-02-06T09:19:02.863Z,15337
2018-02-06T09:19:32.899Z,17253
2018-02-06T09:20:02.922Z,17083
2018-02-06T09:20:33.026Z,15623
2018-02-06T09:21:02.988Z,17340
2018-02-06T09:21:33.033Z,17447
2018-02-06T09:22:03.027Z,17627
2018-02-06T09:22:33.100Z,17437
2018-02-06T09:23:03.087Z,17610
2018-02-06T09:24:03.157Z,17630
2018-02-06T09:24:33.229Z,17227
2018-02-06T09:25:03.297Z,18017
2018-02-06T09:25:33.262Z,16447
2018-02-06T09:26:03.380Z,18070
2018-02-06T09:26:33.366Z,16127
2018-02-06T09:27:03.366Z,18310
2018-02-06T09:27:33.424Z,17923
2018-02-06T09:28:03.415Z,18250
2018-02-06T09:28:33.485Z,17857
2018-02-06T09:29:03.540Z,18397
2018-02-06T09:29:33.540Z,18153
2018-02-06T09:30:03.576Z,18250
2018-02-06T09:30:33.641Z,18443
2018-02-06T09:31:03.636Z,18507
2018-02-06T09:31:33.678Z,18560
2018-02-06T09:32:03.697Z,18517
2018-02-06T09:32:33.736Z,18670
2018-02-06T09:33:03.733Z,18683
2018-02-06T09:33:33.830Z,18973
2018-02-06T09:34:03.833Z,18903
2018-02-06T09:34:33.867Z,18853
2018-02-06T09:35:03.851Z,18797
2018-02-06T09:35:33.953Z,18997
2018-02-06T09:36:03.992Z,19107
2018-02-06T09:36:33.946Z,19237
2018-02-06T09:37:04.033Z,19307
2018-02-06T09:37:34.041Z,19500
2018-02-06T09:38:04.093Z,19183
2018-02-06T09:38:34.124Z,19310
2018-02-06T09:39:04.100Z,19567
2018-02-06T09:39:34.247Z,19667
2018-02-06T09:40:04.187Z,19730
2018-02-06T09:40:34.197Z,19717
2018-02-06T09:41:04.276Z,19500
2018-02-06T09:41:34.314Z,19583
2018-02-06T09:42:04.306Z,19420
2018-02-06T09:42:34.381Z,19230
2018-02-06T09:43:04.360Z,19647
2018-02-06T09:43:34.429Z,19883
2018-02-06T09:44:04.422Z,19530
2018-02-06T09:44:34.510Z,19810
2018-02-06T09:45:04.531Z,19783
2018-02-06T09:45:34.534Z,19917
2018-02-06T09:46:04.601Z,20083
2018-02-06T09:46:34.558Z,19813
2018-02-06T09:47:04.592Z,20037
2018-02-06T09:47:34.611Z,20233
2018-02-06T09:48:04.624Z,20457
2018-02-06T09:48:34.679Z,20163
2018-02-06T09:49:04.721Z,20197
2018-02-06T09:49:34.742Z,20157
2018-02-06T09:50:04.777Z,20267
2018-02-06T09:50:34.794Z,20583
2018-02-06T09:51:04.908Z,20353
2018-02-06T09:51:34.860Z,20443
2018-02-06T09:52:04.892Z,20400
2018-02-06T09:52:34.922Z,20453
2018-02-06T09:53:04.938Z,20560
2018-02-06T09:53:35.007Z,20747
2018-02-06T09:54:05.062Z,20710
2018-02-06T09:54:35.036Z,20670
2018-02-06T09:55:05.078Z,20887
2018-02-06T09:55:35.137Z,21017
2018-02-06T09:56:05.189Z,20923
2018-02-06T09:56:35.209Z,20777
2018-02-06T09:57:05.194Z,20753
2018-02-06T09:57:35.233Z,20963
2018-02-06T09:58:05.290Z,21233
2018-02-06T09:58:35.317Z,20963
2018-02-06T09:59:05.366Z,21147
2018-02-06T09:59:35.403Z,21290
2018-02-06T10:00:05.455Z,20950
2018-02-06T10:00:35.452Z,20833
2018-02-06T10:01:05.483Z,20063
2018-02-06T10:01:35.563Z,20730
2018-02-06T10:02:05.584Z,21103
2018-02-06T10:02:35.576Z,19650
2018-02-06T10:03:05.626Z,21070
2018-02-06T10:03:35.657Z,20840
2018-02-06T10:04:05.624Z,21190
2018-02-06T10:04:35.716Z,21283
2018-02-06T10:05:05.693Z,21677
2018-02-06T10:05:35.718Z,21510
2018-02-06T10:06:05.775Z,21373
2018-02-06T10:06:35.801Z,21513
2018-02-06T10:07:05.862Z,21000
2018-02-06T10:07:35.866Z,21170
2018-02-06T10:08:05.884Z,21270
2018-02-06T10:08:35.902Z,21443
2018-02-06T10:09:05.917Z,21847
2018-02-06T10:09:35.978Z,21397
2018-02-06T10:10:06.036Z,20387
2018-02-06T10:10:36.039Z,21447
2018-02-06T10:11:06.108Z,21057
2018-02-06T10:11:36.104Z,21357
2018-02-06T10:12:06.166Z,21153
2018-02-06T10:12:36.171Z,21607
2018-02-06T10:13:06.233Z,20170
2018-02-06T10:13:36.249Z,19910
2018-02-06T10:14:06.230Z,17467
2018-02-06T10:14:36.334Z,19690
2018-02-06T10:15:06.344Z,20923
2018-02-06T10:15:36.389Z,21240
2018-02-06T10:16:06.362Z,20397
2018-02-06T10:16:36.440Z,21730
2018-02-06T10:17:06.456Z,21697
2018-02-06T10:17:36.518Z,20857
2018-02-06T10:18:06.506Z,21170
2018-02-06T10:18:36.546Z,20380
2018-02-06T10:19:06.587Z,22067
2018-02-06T10:19:36.619Z,21720
2018-02-06T10:20:06.671Z,22107
2018-02-06T10:20:36.683Z,21997
2018-02-06T10:21:06.681Z,22130
2018-02-06T10:21:36.752Z,22153
2018-02-06T10:22:06.762Z,20840
2018-02-06T10:22:36.835Z,21507
2018-02-06T10:23:06.871Z,20917
2018-02-06T10:23:36.896Z,21900
2018-02-06T10:24:06.845Z,21860
2018-02-06T10:24:36.961Z,21907
2018-02-06T10:25:06.975Z,21030
2018-02-06T10:25:37.019Z,22050
2018-02-06T10:26:07.510Z,22417
2018-02-06T10:26:37.075Z,22567
2018-02-06T10:27:07.074Z,22873
2018-02-06T10:27:37.088Z,22640
2018-02-06T10:28:07.219Z,22683
2018-02-06T10:28:37.221Z,22610
2018-02-06T10:29:07.195Z,22657
2018-02-06T10:29:37.245Z,23167
2018-02-06T10:30:07.313Z,23310
2018-02-06T10:30:37.339Z,23110
2018-02-06T10:31:07.315Z,23293
2018-02-06T10:31:37.399Z,23013
2018-02-06T10:32:07.346Z,22463
2018-02-06T10:32:37.402Z,21920
2018-02-06T10:33:07.528Z,20727
2018-02-06T10:33:37.476Z,21400
2018-02-06T10:34:07.471Z,21813
2018-02-06T10:34:37.565Z,22000
2018-02-06T10:35:07.524Z,20933
2018-02-06T10:35:37.575Z,20297
2018-02-06T10:36:07.629Z,21127
2018-02-06T10:36:37.626Z,21450
2018-02-06T10:37:07.680Z,21263
2018-02-06T10:37:37.693Z,21083
2018-02-06T10:38:07.769Z,21700
2018-02-06T10:38:37.768Z,21547
2018-02-06T10:39:07.774Z,21500
2018-02-06T10:39:37.810Z,20857
2018-02-06T10:40:07.841Z,20310
2018-02-06T10:40:37.878Z,19977
2018-02-06T10:41:07.940Z,20617
2018-02-06T10:41:37.991Z,20590
2018-02-06T10:42:07.952Z,20720
2018-02-06T10:42:38.007Z,19070
2018-02-06T10:43:08.108Z,19347
2018-02-06T10:43:38.085Z,18633
2018-02-06T10:44:08.126Z,18170
2018-02-06T10:44:38.124Z,15503
2018-02-06T10:45:08.197Z,14770
2018-02-06T10:45:38.222Z,14850
2018-02-06T10:46:08.209Z,14873
2018-02-06T10:46:38.319Z,15503
2018-02-06T10:47:08.275Z,17730
2018-02-06T10:47:38.304Z,19043
2018-02-06T10:48:08.422Z,19827
2018-02-06T10:48:38.422Z,20470
2018-02-06T10:49:08.441Z,21343
2018-02-06T10:49:38.443Z,19980
2018-02-06T10:50:08.516Z,21413
2018-02-06T10:50:38.574Z,21270
2018-02-06T10:51:08.568Z,21750
2018-02-06T10:51:38.575Z,22713
2018-02-06T10:52:08.567Z,23367
2018-02-06T10:52:38.616Z,23053
2018-02-06T10:53:08.639Z,23273
2018-02-06T10:53:38.687Z,22920
2018-02-06T10:54:08.713Z,23077
2018-02-06T10:54:38.772Z,24383
2018-02-06T10:55:08.739Z,24470
2018-02-06T10:55:38.809Z,24047
2018-02-06T10:56:08.871Z,24810
2018-02-06T10:56:38.867Z,25380
2018-02-06T10:57:08.890Z,25423
2018-02-06T10:57:38.928Z,24983
2018-02-06T10:58:08.956Z,25603
2018-02-06T10:58:38.999Z,26267
2018-02-06T10:59:09.034Z,26507
2018-02-06T10:59:39.051Z,26787
2018-02-06T11:00:09.082Z,26547
2018-02-06T11:00:39.110Z,26443
2018-02-06T11:01:09.133Z,26600
2018-02-06T11:01:39.174Z,26547
2018-02-06T11:02:09.192Z,26730
2018-02-06T11:02:39.242Z,26977
2018-02-06T11:03:09.239Z,27067
2018-02-06T11:03:39.307Z,27097
2018-02-06T11:04:09.340Z,27313
2018-02-06T11:04:39.392Z,27063
2018-02-06T11:05:09.409Z,26830
2018-02-06T11:05:39.449Z,26743
2018-02-06T11:06:09.445Z,26843
2018-02-06T11:06:39.533Z,26767
2018-02-06T11:07:09.557Z,26653
2018-02-06T11:07:39.590Z,26650
2018-02-06T11:08:09.600Z,26520
2018-02-06T11:08:39.625Z,26223
2018-02-06T11:09:09.674Z,25897
2018-02-06T11:09:39.699Z,25953
2018-02-06T11:10:09.741Z,25707
2018-02-06T11:10:39.768Z,25700
2018-02-06T11:11:09.771Z,24747
2018-02-06T11:11:39.822Z,25463
2018-02-06T11:12:09.830Z,25457
2018-02-06T11:12:39.893Z,25433
2018-02-06T11:13:09.882Z,25223
2018-02-06T11:13:39.940Z,25440
2018-02-06T11:14:09.952Z,25357
2018-02-06T11:14:40.001Z,25150
2018-02-06T11:15:10.000Z,25190
2018-02-06T11:15:40.067Z,25370
2018-02-06T11:16:10.102Z,24937
2018-02-06T11:16:40.169Z,25247
2018-02-06T11:17:10.126Z,25397
2018-02-06T11:17:40.174Z,25420
2018-02-06T11:18:10.160Z,25333
2018-02-06T11:18:40.302Z,25517
2018-02-06T11:19:10.228Z,25560
2018-02-06T11:19:40.295Z,24950
2018-02-06T11:20:10.287Z,24787
2018-02-06T11:20:40.355Z,25347
2018-02-06T11:21:10.396Z,25293
2018-02-06T11:21:40.403Z,24960
2018-02-06T11:22:40.506Z,25480
2018-02-06T11:23:10.465Z,25220
2018-02-06T11:23:40.518Z,25250
2018-02-06T11:24:10.541Z,25147
2018-02-06T11:24:40.578Z,25417
2018-02-06T11:25:10.685Z,25297
2018-02-06T11:25:40.687Z,25500
2018-02-06T11:26:10.649Z,25447
2018-02-06T11:26:40.716Z,25307
2018-02-06T11:27:10.743Z,25390
2018-02-06T11:27:40.770Z,25393
2018-02-06T11:28:10.794Z,25237
2018-02-06T11:28:40.836Z,25173
2018-02-06T11:29:10.848Z,25373
2018-02-06T11:29:40.904Z,25300
2018-02-06T11:30:10.907Z,25153
2018-02-06T11:30:40.969Z,25287
2018-02-06T11:31:10.984Z,25467
2018-02-06T11:31:41.030Z,25543
2018-02-06T11:32:11.086Z,25573
2018-02-06T11:32:41.079Z,25803
2018-02-06T11:33:11.090Z,25560
2018-02-06T11:33:41.152Z,25580
2018-02-06T11:34:11.197Z,25520
2018-02-06T11:34:41.243Z,25447
2018-02-06T11:35:11.257Z,25507
2018-02-06T11:35:41.284Z,25390
2018-02-06T11:36:11.294Z,25487
2018-02-06T11:36:41.308Z,25517
2018-02-06T11:37:11.365Z,25493
2018-02-06T11:37:41.422Z,25380
2018-02-06T11:38:11.387Z,25393
2018-02-06T11:38:41.477Z,25427
2018-02-06T11:39:11.478Z,25383
2018-02-06T11:39:41.502Z,25230
2018-02-06T11:40:11.628Z,25203
2018-02-06T11:40:41.598Z,25137
2018-02-06T11:41:11.598Z,25060
2018-02-06T11:41:41.614Z,24950
2018-02-06T11:42:11.687Z,24890
2018-02-06T11:42:41.737Z,24843
2018-02-06T11:43:11.704Z,24773
2018-02-06T11:43:41.772Z,24703
2018-02-06T11:44:11.769Z,25100
2018-02-06T11:44:41.808Z,25220
2018-02-06T11:45:11.884Z,25327
2018-02-06T11:45:41.859Z,25320
2018-02-06T11:46:11.903Z,25513
2018-02-06T11:46:41.917Z,25567
2018-02-06T11:47:11.943Z,25487
2018-02-06T11:47:42.031Z,25433
2018-02-06T11:48:12.001Z,25427
2018-02-06T11:48:42.077Z,25440
2018-02-06T11:49:12.132Z,25507
2018-02-06T11:49:42.108Z,25430
2018-02-06T11:50:12.186Z,25283
2018-02-06T11:50:42.189Z,25047
2018-02-06T11:51:12.254Z,25237
2018-02-06T11:51:42.254Z,25447
2018-02-06T11:52:12.237Z,25360
2018-02-06T11:52:42.327Z,25333
2018-02-06T11:53:12.378Z,25357
2018-02-06T11:53:42.351Z,25297
2018-02-06T11:54:12.400Z,25257
2018-02-06T11:54:42.404Z,25233
2018-02-06T11:55:12.494Z,25197
2018-02-06T11:55:42.488Z,24973
2018-02-06T11:56:12.533Z,24857
2018-02-06T11:56:42.572Z,24950
2018-02-06T11:57:12.665Z,25223
2018-02-06T11:57:42.656Z,25320
2018-02-06T11:58:12.674Z,25127
2018-02-06T11:58:42.710Z,24980
2018-02-06T11:59:12.747Z,24373
2018-02-06T11:59:42.763Z,23993
2018-02-06T12:00:12.796Z,21770
2018-02-06T12:00:42.914Z,23527
2018-02-06T12:01:12.826Z,25007
2018-02-06T12:01:42.837Z,25390
2018-02-06T12:02:12.898Z,25243
2018-02-06T12:02:42.929Z,25067
2018-02-06T12:03:12.950Z,24037
2018-02-06T12:03:43.026Z,24980
2018-02-06T12:04:13.040Z,23880
2018-02-06T12:04:43.063Z,25073
2018-02-06T12:05:13.071Z,21120
2018-02-06T12:05:43.199Z,24760
2018-02-06T12:06:13.101Z,23390
2018-02-06T12:06:43.235Z,24677
2018-02-06T12:07:13.203Z,25110
2018-02-06T12:07:43.254Z,24937
2018-02-06T12:08:13.298Z,24430
2018-02-06T12:08:43.318Z,24840
2018-02-06T12:09:13.336Z,25083
2018-02-06T12:09:43.389Z,21880
2018-02-06T12:10:13.425Z,20393
2018-02-06T12:10:43.418Z,14307
2018-02-06T12:11:13.443Z,16083
2018-02-06T12:11:43.495Z,18190
2018-02-06T12:12:13.551Z,19143
2018-02-06T12:12:43.574Z,18987
2018-02-06T12:13:13.595Z,19210
2018-02-06T12:13:43.653Z,24110
2018-02-06T12:14:13.632Z,19953
2018-02-06T12:14:43.692Z,22150
2018-02-06T12:15:13.714Z,17577
2018-02-06T12:15:43.706Z,16553
2018-02-06T12:16:13.768Z,12703
2018-02-06T12:16:43.785Z,12353
2018-02-06T12:17:13.781Z,12927
2018-02-06T12:17:43.822Z,15533
2018-02-06T12:18:13.852Z,16703
2018-02-06T12:18:43.920Z,19270
2018-02-06T12:19:13.931Z,22447
2018-02-06T12:19:44.020Z,25300
2018-02-06T12:20:13.976Z,26467
2018-02-06T12:20:44.065Z,26877
2018-02-06T12:21:14.024Z,26747
2018-02-06T12:21:44.114Z,26913
2018-02-06T12:22:14.085Z,26383
2018-02-06T12:22:44.182Z,26770
2018-02-06T12:23:14.204Z,26163
2018-02-06T12:23:44.233Z,26310
2018-02-06T12:24:14.264Z,26097
2018-02-06T12:24:44.270Z,20543
2018-02-06T12:25:14.297Z,20293
2018-02-06T12:25:44.398Z,16683
2018-02-06T12:26:14.336Z,16410
2018-02-06T12:26:44.443Z,14203
2018-02-06T12:27:14.429Z,13503
2018-02-06T12:27:44.526Z,11683
2018-02-06T12:28:14.526Z,11513
2018-02-06T12:28:44.529Z,12130
2018-02-06T12:29:14.541Z,11853
2018-02-06T12:29:44.611Z,12353
2018-02-06T12:30:14.593Z,11837
2018-02-06T12:30:44.666Z,13990
2018-02-06T12:31:14.665Z,14897
2018-02-06T12:31:44.701Z,17147
2018-02-06T12:32:14.719Z,16640
2018-02-06T12:32:44.765Z,19717
2018-02-06T12:33:14.773Z,15467
2018-02-06T12:33:44.859Z,13443
2018-02-06T12:34:14.830Z,12553
2018-02-06T12:34:44.889Z,12203
2018-02-06T12:35:14.966Z,12857
2018-02-06T12:35:45.234Z,12227
2018-02-06T12:36:14.958Z,11820
2018-02-06T12:36:45.003Z,12237
2018-02-06T12:37:15.015Z,10733
2018-02-06T12:37:45.104Z,11760
2018-02-06T12:38:15.077Z,11147
2018-02-06T12:38:45.132Z,27413
2018-02-06T12:39:15.150Z,27170
2018-02-06T12:39:45.184Z,27010
2018-02-06T12:40:15.216Z,26557
2018-02-06T12:40:45.350Z,25050
2018-02-06T12:41:15.309Z,26670
2018-02-06T12:41:45.341Z,23680
2018-02-06T12:42:15.396Z,20647
2018-02-06T12:42:45.396Z,22950
2018-02-06T12:43:15.419Z,20433
2018-02-06T12:43:45.450Z,18263
2018-02-06T12:44:15.471Z,20697
2018-02-06T12:44:45.540Z,22667
2018-02-06T12:45:15.543Z,22713
2018-02-06T12:45:45.616Z,21360
2018-02-06T12:46:15.608Z,22907
2018-02-06T12:46:45.650Z,24180
2018-02-06T12:47:15.664Z,21053
2018-02-06T12:47:45.765Z,23687
2018-02-06T12:48:15.734Z,23783
2018-02-06T12:48:45.779Z,23553
2018-02-06T12:49:15.804Z,22747
2018-02-06T12:49:45.849Z,22793
2018-02-06T12:50:15.907Z,22570
2018-02-06T12:50:45.972Z,22477
2018-02-06T12:51:15.946Z,22260
2018-02-06T12:51:45.995Z,22120
2018-02-06T12:52:15.989Z,22210
2018-02-06T12:52:46.040Z,22043
2018-02-06T12:53:16.028Z,21967
2018-02-06T12:53:46.093Z,22083
2018-02-06T12:54:16.124Z,22070
2018-02-06T12:54:46.137Z,21917
2018-02-06T12:55:16.167Z,21947
2018-02-06T12:55:46.301Z,21727
2018-02-06T12:56:16.225Z,21600
2018-02-06T12:56:46.289Z,21700
2018-02-06T12:57:16.306Z,21433
2018-02-06T12:57:46.368Z,21387
2018-02-06T12:58:16.363Z,21617
2018-02-06T12:58:46.392Z,21263
2018-02-06T12:59:16.416Z,21570
2018-02-06T12:59:46.437Z,21573
2018-02-06T13:00:16.466Z,21470
2018-02-06T13:00:46.559Z,21463
2018-02-06T13:01:16.503Z,21363
2018-02-06T13:01:46.605Z,21370
2018-02-06T13:02:16.572Z,21373
2018-02-06T13:02:46.635Z,21270
2018-02-06T13:03:16.634Z,21377
2018-02-06T13:03:46.653Z,21407
2018-02-06T13:04:16.736Z,21480
2018-02-06T13:04:46.780Z,21503